createdAt,value
2019-03-06T00:01:37.386Z,12.47
2019-03-06T00:04:05.813Z,12.97
2019-03-06T00:06:53.300Z,13.33
2019-03-06T00:09:21.709Z,18.47
2019-03-06T00:11:50.103Z,14.60
2019-03-06T00:14:18.513Z,19.20
2019-03-06T00:16:46.906Z,14.30
2019-03-06T00:19:34.560Z,12.13
2019-03-06T00:22:02.954Z,11.47
2019-03-06T00:24:31.363Z,13.77
2019-03-06T00:26:59.765Z,15.03
2019-03-06T00:29:28.172Z,19.80
2019-03-06T00:31:56.576Z,18.40
2019-03-06T00:36:59.448Z,18.77
2019-03-06T00:42:27.600Z,12.40
2019-03-06T00:45:15.125Z,14.17
2019-03-06T00:48:02.860Z,15.33
2019-03-06T00:50:31.274Z,19.87
2019-03-06T00:53:01.393Z,18.70
2019-03-06T00:55:29.795Z,17.83
2019-03-06T00:57:58.189Z,12.37
2019-03-06T01:01:06.512Z,15.17
2019-03-06T01:03:34.918Z,18.27
2019-03-06T01:06:22.446Z,17.23
2019-03-06T01:08:50.921Z,13.77
2019-03-06T01:11:38.743Z,17.43
2019-03-06T01:16:54.593Z,12.50
2019-03-06T01:19:23.001Z,11.90
2019-03-06T01:21:51.395Z,20.03
2019-03-06T01:24:19.803Z,15.67
2019-03-06T01:26:49.933Z,18.43
2019-03-06T01:29:18.316Z,16.47
2019-03-06T01:32:05.970Z,17.40
2019-03-06T01:34:53.494Z,18.03
2019-03-06T01:40:30.099Z,11.00
2019-03-06T01:43:17.848Z,12.10
2019-03-06T01:45:46.260Z,14.70
2019-03-06T01:48:16.379Z,16.23
2019-03-06T01:51:04.044Z,14.00
2019-03-06T01:53:51.556Z,15.60
2019-03-06T01:56:39.079Z,19.27
2019-03-06T01:59:07.479Z,13.60
2019-03-06T02:01:55.228Z,15.60
2019-03-06T02:04:23.641Z,12.93
2019-03-06T02:07:11.150Z,15.63
2019-03-06T02:09:58.864Z,11.03
2019-03-06T02:12:46.607Z,16.53
2019-03-06T02:15:54.925Z,13.53
2019-03-06T02:18:42.568Z,15.23
2019-03-06T02:21:50.876Z,18.30
2019-03-06T02:24:20.987Z,19.13
2019-03-06T02:27:08.639Z,18.43
2019-03-06T02:32:24.490Z,19.03
2019-03-06T02:37:40.331Z,27.33
2019-03-06T02:40:50.373Z,20.37
2019-03-06T02:43:19.007Z,14.60
2019-03-06T02:48:40.251Z,15.37
2019-03-06T02:51:28.144Z,20.83
2019-03-06T02:53:56.539Z,15.73
2019-03-06T02:56:44.439Z,18.67
2019-03-06T03:05:15.745Z,15.67
2019-03-06T03:10:18.143Z,17.50
2019-03-06T03:13:05.803Z,19.53
2019-03-06T03:18:21.647Z,20.10
2019-03-06T03:20:50.040Z,11.87
2019-03-06T03:23:37.697Z,14.70
2019-03-06T03:28:53.538Z,17.77
2019-03-06T03:31:21.944Z,14.73
2019-03-06T03:34:09.464Z,12.33
2019-03-06T03:36:57.122Z,24.47
2019-03-06T03:39:25.520Z,14.67
2019-03-06T03:41:53.913Z,17.87
2019-03-06T03:44:41.437Z,17.17
2019-03-06T03:47:28.956Z,18.53
2019-03-06T03:50:16.697Z,15.00
2019-03-06T03:55:59.480Z,25.90
2019-03-06T03:58:27.897Z,15.93
2019-03-06T04:00:56.368Z,18.63
2019-03-06T04:06:19.684Z,18.67
2019-03-06T04:09:07.445Z,15.47
2019-03-06T04:11:35.842Z,15.80
2019-03-06T04:16:58.653Z,23.43
2019-03-06T04:19:46.393Z,14.57
2019-03-06T04:22:14.797Z,16.33
2019-03-06T04:24:43.194Z,13.70
2019-03-06T04:27:30.840Z,12.93
2019-03-06T04:29:59.232Z,12.27
2019-03-06T04:32:27.634Z,14.60
2019-03-06T04:35:15.153Z,15.43
2019-03-06T04:37:43.586Z,16.40
2019-03-06T04:40:31.292Z,15.70
2019-03-06T04:45:33.577Z,14.03
2019-03-06T04:48:01.984Z,13.40
2019-03-06T04:50:30.371Z,11.80
2019-03-06T04:55:33.004Z,11.77
2019-03-06T04:58:01.417Z,13.17
2019-03-06T05:00:49.366Z,16.07
2019-03-06T05:03:18.037Z,11.90
2019-03-06T05:06:05.666Z,13.33
2019-03-06T05:08:35.790Z,13.93
2019-03-06T05:11:04.177Z,17.40
2019-03-06T05:13:51.825Z,14.03
2019-03-06T05:16:58.595Z,15.17
2019-03-06T05:19:26.994Z,10.50
2019-03-06T05:22:14.635Z,12.67
2019-03-06T05:24:43.065Z,17.03
2019-03-06T05:27:30.780Z,13.20
2019-03-06T05:30:20.024Z,20.00
2019-03-06T05:33:28.735Z,15.07
2019-03-06T05:36:37.109Z,16.60
2019-03-06T05:39:45.437Z,14.77
2019-03-06T05:42:32.961Z,20.70
2019-03-06T05:45:20.641Z,16.27
2019-03-06T05:47:49.050Z,12.00
2019-03-06T05:50:20.357Z,10.03
2019-03-06T05:52:49.317Z,11.47
2019-03-06T05:55:36.858Z,12.53
2019-03-06T06:01:00.443Z,13.97
2019-03-06T06:03:28.874Z,12.80
2019-03-06T06:06:16.650Z,10.30
2019-03-06T06:08:45.071Z,15.70
2019-03-06T06:14:00.930Z,12.97
2019-03-06T06:16:48.628Z,13.47
2019-03-06T06:19:17.046Z,14.10
2019-03-06T06:22:04.570Z,15.90
2019-03-06T06:24:33.015Z,14.43
2019-03-06T06:27:01.417Z,15.07
2019-03-06T06:29:49.218Z,12.13
2019-03-06T06:32:17.630Z,15.03
2019-03-06T06:34:46.073Z,17.07
2019-03-06T06:37:33.714Z,13.63
2019-03-06T06:40:21.366Z,12.50
2019-03-06T06:43:09.007Z,13.87
2019-03-06T06:45:56.658Z,21.67
2019-03-06T06:49:04.965Z,12.40
2019-03-06T06:52:11.950Z,17.50
2019-03-06T06:55:20.275Z,17.03
2019-03-06T06:58:31.388Z,15.80
2019-03-06T07:01:37.332Z,13.73
2019-03-06T07:05:03.447Z,11.97
2019-03-06T07:07:50.960Z,13.67
2019-03-06T07:10:38.662Z,13.03
2019-03-06T07:16:34.583Z,13.13
2019-03-06T07:19:22.114Z,16.17
2019-03-06T07:22:28.877Z,17.27
2019-03-06T07:25:16.401Z,18.67
2019-03-06T07:30:52.998Z,20.77
2019-03-06T07:33:40.514Z,16.30
2019-03-06T07:41:42.582Z,16.60
2019-03-06T07:47:19.174Z,16.33
2019-03-06T07:50:27.487Z,21.90
2019-03-06T07:53:37.832Z,17.10
2019-03-06T07:56:25.355Z,18.10
2019-03-06T07:59:33.660Z,17.90
2019-03-06T08:02:42.031Z,20.33
2019-03-06T08:05:50.347Z,19.03
2019-03-06T08:08:18.747Z,14.63
2019-03-06T08:10:47.157Z,17.77
2019-03-06T08:13:34.674Z,15.30
2019-03-06T08:19:16.585Z,18.27
2019-03-06T08:22:24.896Z,19.00
2019-03-06T08:27:42.675Z,15.77
2019-03-06T08:30:50.996Z,20.43
2019-03-06T08:36:06.836Z,19.70
2019-03-06T08:38:54.474Z,17.63
2019-03-06T08:41:22.879Z,18.23
2019-03-06T08:44:10.618Z,18.33
2019-03-06T08:46:58.140Z,20.70
2019-03-06T08:52:54.072Z,19.20
2019-03-06T08:56:00.848Z,23.90
2019-03-06T08:58:48.366Z,18.67
2019-03-06T09:02:00.516Z,16.93
2019-03-06T09:04:45.928Z,18.27
2019-03-06T09:07:33.694Z,16.80
2019-03-06T09:15:49.195Z,18.80
2019-03-06T09:24:10.717Z,18.83
2019-03-06T09:27:19.028Z,20.80
2019-03-06T09:30:13.246Z,17.83
2019-03-06T09:32:55.784Z,15.63
2019-03-06T09:35:43.294Z,16.07
2019-03-06T09:38:30.826Z,17.70
2019-03-06T09:41:18.507Z,19.43
2019-03-06T09:44:26.825Z,15.90
2019-03-06T09:47:14.347Z,17.63
2019-03-06T09:50:22.651Z,15.07
2019-03-06T09:53:10.170Z,15.90
2019-03-06T09:55:57.961Z,19.00
2019-03-06T10:01:40.491Z,16.63
2019-03-06T10:04:28.014Z,19.50
2019-03-06T10:07:15.717Z,14.33
2019-03-06T10:10:22.484Z,10.47
2019-03-06T10:16:04.679Z,14.47
2019-03-06T10:19:11.703Z,14.60
2019-03-06T10:21:59.373Z,13.93
2019-03-06T10:24:27.759Z,13.63
2019-03-06T10:27:15.276Z,16.10
2019-03-06T10:29:43.686Z,15.80
2019-03-06T10:40:49.608Z,13.00
2019-03-06T10:43:37.131Z,13.77
2019-03-06T10:48:53.353Z,13.83
2019-03-06T10:51:41.247Z,13.77
2019-03-06T10:54:09.657Z,11.63
2019-03-06T10:59:25.502Z,14.50
2019-03-06T11:02:13.017Z,12.50
2019-03-06T11:05:21.607Z,12.27
2019-03-06T11:08:29.991Z,12.20
2019-03-06T11:10:58.526Z,8.13
2019-03-06T11:13:26.923Z,12.03
2019-03-06T11:15:56.092Z,14.23
2019-03-06T11:19:05.366Z,10.73
2019-03-06T11:25:01.013Z,7.80
2019-03-06T11:27:29.411Z,8.93
2019-03-06T11:30:17.094Z,7.40
2019-03-06T11:33:04.733Z,8.40
2019-03-06T11:39:07.431Z,8.50
2019-03-06T11:42:17.455Z,7.23
2019-03-06T11:47:20.147Z,6.30
2019-03-06T11:49:48.555Z,6.80
2019-03-06T11:52:16.954Z,7.63
2019-03-06T11:55:06.275Z,7.90
2019-03-06T12:01:02.473Z,6.70
2019-03-06T12:03:50.190Z,10.03
2019-03-06T12:06:18.597Z,8.90
2019-03-06T12:12:14.418Z,5.63
2019-03-06T12:15:02.066Z,4.57
2019-03-06T12:20:17.903Z,10.80
2019-03-06T12:22:46.293Z,6.07
2019-03-06T12:25:54.608Z,5.20
2019-03-06T12:31:50.316Z,8.50
2019-03-06T12:37:26.779Z,10.00
2019-03-06T12:40:14.890Z,10.73
2019-03-06T12:48:25.603Z,13.57
2019-03-06T12:51:13.259Z,10.33
2019-03-06T12:53:41.658Z,11.20
2019-03-06T12:56:29.546Z,8.73
2019-03-06T12:58:57.940Z,8.87
2019-03-06T13:04:20.736Z,7.63
2019-03-06T13:07:08.515Z,6.87
2019-03-06T13:09:37.674Z,8.53
2019-03-06T13:14:40.925Z,6.17
2019-03-06T13:20:43.652Z,8.13
2019-03-06T13:23:12.046Z,7.00
2019-03-06T13:25:40.441Z,7.60
2019-03-06T13:28:10.563Z,12.57
2019-03-06T13:31:18.879Z,6.20
2019-03-06T13:34:06.392Z,5.97
2019-03-06T13:36:34.795Z,7.53
2019-03-06T13:42:30.504Z,9.83
2019-03-06T13:44:58.897Z,8.30
2019-03-06T13:47:46.541Z,4.83
2019-03-06T13:50:54.841Z,5.27
2019-03-06T13:53:24.967Z,13.00
2019-03-06T13:55:53.361Z,5.57
2019-03-06T13:58:21.768Z,6.00
2019-03-06T14:00:50.157Z,5.10
2019-03-06T14:03:18.564Z,5.20
2019-03-06T14:05:46.958Z,4.70
2019-03-06T14:10:49.551Z,4.40
2019-03-06T14:13:37.197Z,6.07
2019-03-06T14:19:13.741Z,11.27
2019-03-06T14:21:42.147Z,6.33
2019-03-06T14:24:29.650Z,4.17
2019-03-06T14:27:17.298Z,5.57
2019-03-06T14:32:53.775Z,10.20
2019-03-06T14:41:44.736Z,4.20
2019-03-06T14:44:13.144Z,7.97
2019-03-06T14:47:00.655Z,9.53
2019-03-06T14:52:23.505Z,5.30
2019-03-06T14:55:11.142Z,4.47
2019-03-06T14:57:58.795Z,6.83
2019-03-06T15:00:46.601Z,3.30
2019-03-06T15:03:14.998Z,2.70
2019-03-06T15:05:47.173Z,6.63
2019-03-06T15:08:32.759Z,7.13
2019-03-06T15:11:01.154Z,2.47
2019-03-06T15:13:29.567Z,6.80
2019-03-06T15:15:58.033Z,4.97
2019-03-06T15:21:00.354Z,2.40
2019-03-06T15:23:47.873Z,4.53
2019-03-06T15:26:16.267Z,3.50
2019-03-06T15:29:24.595Z,4.77
2019-03-06T15:32:32.982Z,11.60
2019-03-06T15:35:01.398Z,11.70
2019-03-06T15:37:29.783Z,4.30
2019-03-06T15:43:13.818Z,3.20
2019-03-06T15:45:42.211Z,5.10
2019-03-06T15:48:10.611Z,2.97
2019-03-06T15:53:47.070Z,7.00
2019-03-06T15:56:15.466Z,6.23
2019-03-06T16:01:57.533Z,11.73
2019-03-06T16:04:25.939Z,3.90
2019-03-06T16:07:13.458Z,3.20
2019-03-06T16:10:00.983Z,3.00
2019-03-06T16:12:29.369Z,6.83
2019-03-06T16:14:57.774Z,6.10
2019-03-06T16:18:06.083Z,4.43
2019-03-06T16:21:14.404Z,17.00
2019-03-06T16:23:42.810Z,4.37
2019-03-06T16:28:58.654Z,4.90
2019-03-06T16:31:46.169Z,3.70
2019-03-06T16:34:33.819Z,4.70
2019-03-06T16:37:03.947Z,8.23
2019-03-06T16:39:32.355Z,5.27
2019-03-06T16:42:00.749Z,4.73
2019-03-06T16:44:48.408Z,4.17
2019-03-06T16:47:56.714Z,5.73
2019-03-06T16:51:05.035Z,3.43
2019-03-06T16:53:33.423Z,2.83
2019-03-06T16:56:01.842Z,5.00
2019-03-06T16:59:10.158Z,6.23
2019-03-06T17:01:57.967Z,7.47
2019-03-06T17:04:28.103Z,4.27
2019-03-06T17:09:43.938Z,3.27
2019-03-06T17:12:12.341Z,4.67
2019-03-06T17:14:40.738Z,3.77
2019-03-06T17:20:57.113Z,10.43
2019-03-06T17:23:25.503Z,5.67
2019-03-06T17:26:13.315Z,4.20
2019-03-06T17:28:41.705Z,3.03
2019-03-06T17:31:10.112Z,6.83
2019-03-06T17:33:38.507Z,3.80
2019-03-06T17:36:26.023Z,3.90
2019-03-06T17:38:54.427Z,5.93
2019-03-06T17:43:56.850Z,3.50
2019-03-06T17:46:25.526Z,4.83
2019-03-06T17:48:53.921Z,6.10
2019-03-06T17:51:22.333Z,7.00
2019-03-06T17:53:50.717Z,6.73
2019-03-06T17:56:38.361Z,7.53
2019-03-06T18:01:54.200Z,4.90
2019-03-06T18:04:41.837Z,6.23
2019-03-06T18:07:10.239Z,9.97
2019-03-06T18:09:38.641Z,11.30
2019-03-06T18:15:01.972Z,17.77
2019-03-06T18:17:30.362Z,9.63
2019-03-06T18:20:18.022Z,9.27
2019-03-06T18:23:05.648Z,8.13
2019-03-06T18:25:34.056Z,6.47
2019-03-06T18:28:21.567Z,5.70
2019-03-06T18:31:09.082Z,7.73
2019-03-06T18:36:44.036Z,10.30
2019-03-06T18:39:31.546Z,3.80
2019-03-06T18:44:52.877Z,4.90
2019-03-06T18:47:21.281Z,5.23
2019-03-06T18:50:08.927Z,5.60
2019-03-06T18:52:37.326Z,3.90
2019-03-06T18:55:45.639Z,7.80
2019-03-06T19:01:01.476Z,7.77
2019-03-06T19:03:29.866Z,4.70
2019-03-06T19:06:20.820Z,3.13
2019-03-06T19:09:08.338Z,4.33
2019-03-06T19:11:36.733Z,3.87
2019-03-06T19:14:45.042Z,3.60
2019-03-06T19:20:06.920Z,4.57
2019-03-06T19:22:35.330Z,19.77
2019-03-06T19:25:43.651Z,16.43
2019-03-06T19:28:31.167Z,7.23
2019-03-06T19:31:18.821Z,6.55
2019-03-06T19:33:47.216Z,15.50
2019-03-06T19:36:34.867Z,6.90
2019-03-06T19:42:11.339Z,6.53
2019-03-06T19:44:58.987Z,17.23
2019-03-06T19:48:07.295Z,5.63
2019-03-06T19:50:54.949Z,9.40
2019-03-06T19:53:23.353Z,14.80
2019-03-06T19:55:51.755Z,16.30
2019-03-06T19:59:00.057Z,6.67
2019-03-06T20:01:47.579Z,3.17
2019-03-06T20:07:22.752Z,9.87
2019-03-06T20:10:31.063Z,4.40
2019-03-06T20:13:18.810Z,5.40
2019-03-06T20:18:34.647Z,3.30
2019-03-06T20:21:22.201Z,7.23
2019-03-06T20:24:10.078Z,3.63
2019-03-06T20:26:57.669Z,4.80
2019-03-06T20:29:45.315Z,5.63
2019-03-06T20:32:13.796Z,7.30
2019-03-06T20:34:42.184Z,5.90
2019-03-06T20:37:29.845Z,7.43
2019-03-06T20:40:17.366Z,6.53
2019-03-06T20:43:25.686Z,4.07
2019-03-06T20:46:13.197Z,3.83
2019-03-06T20:48:41.602Z,5.70
2019-03-06T20:51:09.995Z,4.47
2019-03-06T20:53:38.427Z,3.80
2019-03-06T20:56:06.883Z,3.20
2019-03-06T20:58:35.277Z,3.07
2019-03-06T21:01:04.044Z,2.95
2019-03-06T21:03:51.559Z,4.13
2019-03-06T21:06:19.953Z,4.03
2019-03-06T21:09:07.613Z,8.10
2019-03-06T21:11:36.408Z,1.97
2019-03-06T21:14:06.132Z,2.20
2019-03-06T21:16:34.534Z,6.03
2019-03-06T21:19:22.179Z,2.57
2019-03-06T21:21:50.585Z,1.50
2019-03-06T21:24:18.983Z,3.50
2019-03-06T21:26:47.375Z,6.50
2019-03-06T21:32:08.753Z,1.47
2019-03-06T21:37:24.589Z,1.40
2019-03-06T21:40:00.364Z,1.13
2019-03-06T21:42:28.797Z,1.70
2019-03-06T21:45:16.530Z,4.13
2019-03-06T21:48:04.189Z,5.87
2019-03-06T21:50:32.584Z,3.43
2019-03-06T21:53:20.247Z,1.53
2019-03-06T21:56:07.770Z,3.63
2019-03-06T21:58:36.169Z,1.80
2019-03-06T22:01:04.569Z,2.10
2019-03-06T22:03:34.686Z,1.77
2019-03-06T22:06:03.159Z,1.40
2019-03-06T22:11:05.154Z,1.60
2019-03-06T22:13:33.562Z,1.80
2019-03-06T22:16:01.954Z,1.90
2019-03-06T22:23:59.684Z,4.67
2019-03-06T22:26:29.804Z,1.30
2019-03-06T22:29:17.323Z,1.50
2019-03-06T22:32:05.060Z,3.50
2019-03-06T22:34:52.713Z,1.63
2019-03-06T22:37:21.104Z,2.20
2019-03-06T22:40:08.753Z,1.50
2019-03-06T22:42:56.268Z,1.93
2019-03-06T22:45:43.785Z,2.03
2019-03-06T22:48:12.179Z,2.20
2019-03-06T22:50:59.699Z,1.50
2019-03-06T22:54:08.011Z,1.20
2019-03-06T22:56:36.412Z,5.47
2019-03-06T22:59:23.930Z,2.03
2019-03-06T23:02:11.705Z,2.40
2019-03-06T23:04:59.357Z,2.77
2019-03-06T23:07:27.747Z,2.17
2019-03-06T23:09:57.870Z,4.67
2019-03-06T23:12:26.259Z,3.27
2019-03-06T23:15:13.781Z,2.80
2019-03-06T23:17:42.169Z,2.03
2019-03-06T23:20:29.895Z,2.57
2019-03-06T23:22:58.285Z,3.37
2019-03-06T23:25:45.810Z,3.53
2019-03-06T23:28:14.376Z,2.37
2019-03-06T23:31:02.029Z,1.80
2019-03-06T23:33:30.422Z,1.20
2019-03-06T23:36:18.077Z,1.97
2019-03-06T23:41:33.909Z,3.97
2019-03-06T23:44:21.418Z,4.70
2019-03-06T23:49:23.566Z,5.40
2019-03-06T23:54:46.605Z,1.70
2019-03-06T23:57:15.007Z,3.13
2019-03-06T23:59:43.405Z,4.43
